createdAt,value
2022-08-05T00:01:35.637Z,93.00
2022-08-05T00:04:05.185Z,91.80
2022-08-05T00:06:36.565Z,91.90
2022-08-05T00:09:05.422Z,92.60
2022-08-05T00:11:49.037Z,93.30
2022-08-05T00:14:27.837Z,92.00
2022-08-05T00:16:57.920Z,92.40
2022-08-05T00:19:33.206Z,92.80
2022-08-05T00:22:17.867Z,93.10
2022-08-05T00:24:45.993Z,93.00
2022-08-05T00:27:35.766Z,92.50
2022-08-05T00:30:04.948Z,93.80
2022-08-05T00:32:42.558Z,92.90
2022-08-05T00:35:10.690Z,92.70
2022-08-05T00:37:52.408Z,93.60
2022-08-05T00:40:28.374Z,93.80
2022-08-05T00:42:59.671Z,93.60
2022-08-05T00:45:42.898Z,94.40
2022-08-05T00:48:13.218Z,94.70
2022-08-05T00:50:45.840Z,94.40
2022-08-05T00:54:00.001Z,94.10
2022-08-05T00:56:10.544Z,95.10
2022-08-05T00:58:42.426Z,94.30
2022-08-05T01:01:16.105Z,93.80
2022-08-05T01:04:11.812Z,94.50
2022-08-05T01:06:43.794Z,94.70
2022-08-05T01:09:21.607Z,94.50
2022-08-05T01:11:52.029Z,95.20
2022-08-05T01:14:27.791Z,94.90
2022-08-05T01:16:56.607Z,95.50
2022-08-05T01:19:36.839Z,96.20
2022-08-05T01:22:27.901Z,96.40
2022-08-05T01:25:19.366Z,95.40
2022-08-05T01:27:54.868Z,95.20
2022-08-05T01:30:34.063Z,96.00
2022-08-05T01:33:08.072Z,96.10
2022-08-05T01:35:52.239Z,96.10
2022-08-05T01:38:26.871Z,95.60
2022-08-05T01:40:58.585Z,95.70
2022-08-05T01:43:30.741Z,96.10
2022-08-05T01:46:07.117Z,96.10
2022-08-05T01:48:49.396Z,95.90
2022-08-05T01:51:21.015Z,96.60
2022-08-05T01:53:57.419Z,97.90
2022-08-05T01:58:10.128Z,96.20
2022-08-05T01:59:21.354Z,96.30
2022-08-05T02:01:54.794Z,96.80
2022-08-05T02:04:24.611Z,96.20
2022-08-05T02:06:54.238Z,96.40
2022-08-05T02:09:23.772Z,96.30
2022-08-05T02:12:01.647Z,97.70
2022-08-05T02:14:49.881Z,96.30
2022-08-05T02:18:27.998Z,96.80
2022-08-05T02:20:12.014Z,98.50
2022-08-05T02:22:42.735Z,97.90
2022-08-05T02:25:25.058Z,96.40
2022-08-05T02:28:00.146Z,97.70
2022-08-05T02:30:34.401Z,97.30
2022-08-05T02:33:04.039Z,98.40
2022-08-05T02:35:37.779Z,97.10
2022-08-05T02:38:19.390Z,97.50
2022-08-05T02:40:50.152Z,97.80
2022-08-05T02:43:19.049Z,97.80
2022-08-05T02:45:52.897Z,98.10
2022-08-05T02:48:29.356Z,98.10
2022-08-05T02:51:00.388Z,98.40
2022-08-05T02:53:39.566Z,98.90
2022-08-05T02:56:15.897Z,98.40
2022-08-05T02:58:51.290Z,99.50
2022-08-05T03:01:23.464Z,99.40
2022-08-05T03:04:02.543Z,99.50
2022-08-05T03:06:57.089Z,99.10
2022-08-05T03:09:27.103Z,98.50
2022-08-05T03:12:05.990Z,98.60
2022-08-05T03:14:34.136Z,99.60
2022-08-05T03:17:13.566Z,99.90
2022-08-05T03:19:45.615Z,99.90
2022-08-05T03:22:16.618Z,99.90
2022-08-05T03:24:50.957Z,99.90
2022-08-05T03:27:24.189Z,99.90
2022-08-05T03:30:10.909Z,99.90
2022-08-05T03:32:39.542Z,99.90
2022-08-05T03:35:09.005Z,99.90
2022-08-05T03:37:44.786Z,99.90
2022-08-05T03:40:14.964Z,99.90
2022-08-05T03:42:52.580Z,99.90
2022-08-05T03:45:23.295Z,99.90
2022-08-05T03:47:57.006Z,99.90
2022-08-05T03:50:34.365Z,99.90
2022-08-05T03:55:52.077Z,99.90
2022-08-05T03:56:26.897Z,99.90
2022-08-05T03:59:02.193Z,99.90
2022-08-05T04:01:34.824Z,99.90
2022-08-05T04:04:09.683Z,99.90
2022-08-05T04:06:47.612Z,99.90
2022-08-05T04:09:26.146Z,99.90
2022-08-05T04:11:56.723Z,99.90
2022-08-05T04:14:29.891Z,99.90
2022-08-05T04:17:02.925Z,99.90
2022-08-05T04:19:31.330Z,99.90
2022-08-05T04:22:08.042Z,99.90
2022-08-05T04:24:44.015Z,99.90
2022-08-05T04:27:13.711Z,99.90
2022-08-05T04:29:44.321Z,99.90
2022-08-05T04:32:15.665Z,99.90
2022-08-05T04:34:58.893Z,99.90
2022-08-05T04:38:01.472Z,99.90
2022-08-05T04:40:14.810Z,99.90
2022-08-05T04:42:50.119Z,99.90
2022-08-05T04:45:31.157Z,99.90
2022-08-05T04:48:07.617Z,99.90
2022-08-05T04:51:01.701Z,99.90
2022-08-05T04:53:35.514Z,99.90
2022-08-05T04:56:32.400Z,99.90
2022-08-05T04:58:57.978Z,99.90
2022-08-05T05:02:06.326Z,99.90
2022-08-05T05:04:17.535Z,99.90
2022-08-05T05:06:49.345Z,99.90
2022-08-05T05:09:31.851Z,99.90
2022-08-05T05:12:02.058Z,99.90
2022-08-05T05:14:32.018Z,99.90
2022-08-05T05:17:01.154Z,99.90
2022-08-05T05:19:37.146Z,99.90
2022-08-05T05:22:23.924Z,99.90
2022-08-05T05:24:58.147Z,99.90
2022-08-05T05:27:41.506Z,99.90
2022-08-05T05:30:28.770Z,99.90
2022-08-05T05:33:00.848Z,99.50
2022-08-05T05:35:38.111Z,98.90
2022-08-05T05:38:14.179Z,98.50
2022-08-05T05:40:51.391Z,98.40
2022-08-05T05:43:56.382Z,98.40
2022-08-05T05:46:17.647Z,98.10
2022-08-05T05:48:48.899Z,97.70
2022-08-05T05:51:21.075Z,97.00
2022-08-05T05:53:57.321Z,96.80
2022-08-05T05:56:34.765Z,96.10
2022-08-05T05:59:07.841Z,96.00
2022-08-05T06:01:38.250Z,96.40
2022-08-05T06:04:11.695Z,95.40
2022-08-05T06:06:43.185Z,95.20
2022-08-05T06:09:16.983Z,94.30
2022-08-05T06:12:01.130Z,93.60
2022-08-05T06:14:31.243Z,92.60
2022-08-05T06:17:02.133Z,92.80
2022-08-05T06:19:56.807Z,91.70
2022-08-05T06:22:33.602Z,91.20
2022-08-05T06:25:59.513Z,88.40
2022-08-05T06:28:10.812Z,88.50
2022-08-05T06:30:41.400Z,88.30
2022-08-05T06:33:09.767Z,84.80
2022-08-05T06:36:06.972Z,80.90
2022-08-05T06:38:36.149Z,77.50
2022-08-05T06:41:08.086Z,75.50
2022-08-05T06:43:57.478Z,79.70
2022-08-05T06:46:30.320Z,80.80
2022-08-05T06:49:02.157Z,78.20
2022-08-05T06:51:35.618Z,76.80
2022-08-05T06:54:09.131Z,72.40
2022-08-05T06:56:42.840Z,70.90
2022-08-05T06:59:23.175Z,69.70
2022-08-05T07:01:52.811Z,68.70
2022-08-05T07:04:21.083Z,67.90
2022-08-05T07:06:50.333Z,68.70
2022-08-05T07:09:18.731Z,68.50
2022-08-05T07:11:51.736Z,64.40
2022-08-05T07:14:38.445Z,64.30
2022-08-05T07:18:00.692Z,62.50
2022-08-05T07:22:49.615Z,61.30
2022-08-05T07:25:54.018Z,60.00
2022-08-05T07:28:11.810Z,61.50
2022-08-05T07:30:52.731Z,59.50
2022-08-05T07:33:36.745Z,58.10
2022-08-05T07:36:21.306Z,58.60
2022-08-05T07:38:54.668Z,57.30
2022-08-05T07:42:14.449Z,57.40
2022-08-05T07:44:19.083Z,59.00
2022-08-05T07:46:49.587Z,57.60
2022-08-05T07:49:21.504Z,57.70
2022-08-05T07:51:54.549Z,59.10
2022-08-05T07:54:30.670Z,55.00
2022-08-05T07:57:17.788Z,56.70
2022-08-05T07:59:54.423Z,57.20
2022-08-05T08:02:31.313Z,57.20
2022-08-05T08:05:19.714Z,56.60
2022-08-05T08:07:59.967Z,54.10
2022-08-05T08:10:28.813Z,55.10
2022-08-05T08:13:00.676Z,54.00
2022-08-05T08:16:33.331Z,54.10
2022-08-05T08:18:21.240Z,55.80
2022-08-05T08:21:02.694Z,53.00
2022-08-05T08:24:02.489Z,54.30
2022-08-05T08:26:26.733Z,53.60
2022-08-05T08:29:02.345Z,52.10
2022-08-05T08:31:48.341Z,54.40
2022-08-05T08:34:30.389Z,51.40
2022-08-05T08:37:05.251Z,50.60
2022-08-05T08:39:37.356Z,51.20
2022-08-05T08:42:34.073Z,51.10
2022-08-05T08:45:23.125Z,52.80
2022-08-05T08:48:06.618Z,51.40
2022-08-05T08:51:04.034Z,53.10
2022-08-05T08:53:46.911Z,51.30
2022-08-05T08:56:18.203Z,51.60
2022-08-05T08:58:48.640Z,50.60
2022-08-05T09:01:20.567Z,49.90
2022-08-05T09:03:55.525Z,50.30
2022-08-05T09:06:30.176Z,49.60
2022-08-05T09:08:59.879Z,50.10
2022-08-05T09:11:51.580Z,47.00
2022-08-05T09:14:58.480Z,48.00
2022-08-05T09:17:43.088Z,48.80
2022-08-05T09:20:09.882Z,49.20
2022-08-05T09:23:05.267Z,48.40
2022-08-05T09:26:03.325Z,45.90
2022-08-05T09:28:32.125Z,47.20
2022-08-05T09:31:44.023Z,47.00
2022-08-05T09:34:14.072Z,44.10
2022-08-05T09:36:54.167Z,46.70
2022-08-05T09:39:39.290Z,46.90
2022-08-05T09:42:17.290Z,44.90
2022-08-05T09:44:50.584Z,45.00
2022-08-05T09:47:23.475Z,43.80
2022-08-05T09:50:01.567Z,43.90
2022-08-05T09:52:32.221Z,44.60
2022-08-05T09:55:06.460Z,46.60
2022-08-05T09:57:48.883Z,46.80
2022-08-05T10:00:26.671Z,49.40
2022-08-05T10:02:58.628Z,48.50
2022-08-05T10:05:32.744Z,48.00
2022-08-05T10:08:34.653Z,46.90
2022-08-05T10:10:56.488Z,47.30
2022-08-05T10:13:31.853Z,47.50
2022-08-05T10:16:32.100Z,49.20
2022-08-05T10:19:04.319Z,47.70
2022-08-05T10:21:40.351Z,50.90
2022-08-05T10:24:13.792Z,47.30
2022-08-05T10:26:48.989Z,49.60
2022-08-05T10:29:23.506Z,48.30
2022-08-05T10:32:53.219Z,46.20
2022-08-05T10:35:01.049Z,45.40
2022-08-05T10:37:40.311Z,45.90
2022-08-05T10:40:33.456Z,44.10
2022-08-05T10:43:12.622Z,42.80
2022-08-05T10:45:43.521Z,45.70
2022-08-05T10:48:36.013Z,47.70
2022-08-05T10:51:21.670Z,45.80
2022-08-05T10:53:58.574Z,45.20
2022-08-05T10:56:30.902Z,42.10
2022-08-05T10:59:11.389Z,42.20
2022-08-05T11:01:54.283Z,41.60
2022-08-05T11:04:31.710Z,43.10
2022-08-05T11:07:06.821Z,42.30
2022-08-05T11:09:45.743Z,42.00
2022-08-05T11:12:26.931Z,46.70
2022-08-05T11:15:19.647Z,46.30
2022-08-05T11:17:59.229Z,46.50
2022-08-05T11:20:33.709Z,45.30
2022-08-05T11:23:21.883Z,45.00
2022-08-05T11:26:08.850Z,42.80
2022-08-05T11:28:53.534Z,40.70
2022-08-05T11:31:54.420Z,41.80
2022-08-05T11:34:51.608Z,41.90
2022-08-05T11:38:30.298Z,42.80
2022-08-05T11:40:57.440Z,41.30
2022-08-05T11:44:05.002Z,41.80
2022-08-05T11:46:30.682Z,43.90
2022-08-05T11:49:01.985Z,40.10
2022-08-05T11:51:44.346Z,39.50
2022-08-05T11:54:33.972Z,37.70
2022-08-05T11:57:08.854Z,36.20
2022-08-05T11:59:52.867Z,36.30
2022-08-05T12:02:31.287Z,35.70
2022-08-05T12:05:07.939Z,35.70
2022-08-05T12:08:03.468Z,36.00
2022-08-05T12:10:43.402Z,34.10
2022-08-05T12:13:17.252Z,35.80
2022-08-05T12:15:49.740Z,38.30
2022-08-05T12:18:38.947Z,41.90
2022-08-05T12:21:11.400Z,42.30
2022-08-05T12:23:42.919Z,42.80
2022-08-05T12:26:12.266Z,42.50
2022-08-05T12:28:42.581Z,43.20
2022-08-05T12:31:23.241Z,45.70
2022-08-05T12:34:03.614Z,47.70
2022-08-05T12:36:34.437Z,46.20
2022-08-05T12:39:05.515Z,44.00
2022-08-05T12:41:36.045Z,43.80
2022-08-05T12:44:14.398Z,43.80
2022-08-05T12:46:53.958Z,43.90
2022-08-05T12:49:25.453Z,46.30
2022-08-05T12:52:13.049Z,42.70
2022-08-05T12:54:51.731Z,39.40
2022-08-05T12:57:23.230Z,38.30
2022-08-05T13:01:57.017Z,38.50
2022-08-05T13:02:43.821Z,35.80
2022-08-05T13:05:19.075Z,38.90
2022-08-05T13:07:59.484Z,38.20
2022-08-05T13:10:28.683Z,36.30
2022-08-05T13:12:58.587Z,35.00
2022-08-05T13:15:41.464Z,36.10
2022-08-05T13:18:21.633Z,34.50
2022-08-05T13:20:53.009Z,36.40
2022-08-05T13:23:22.549Z,34.50
2022-08-05T13:25:59.281Z,35.40
2022-08-05T13:28:32.305Z,33.70
2022-08-05T13:31:03.306Z,30.90
2022-08-05T13:34:22.109Z,31.80
2022-08-05T13:36:30.609Z,33.70
2022-08-05T13:38:58.893Z,30.00
2022-08-05T13:41:37.363Z,31.20
2022-08-05T13:44:06.820Z,32.50
2022-08-05T13:49:31.446Z,32.20
2022-08-05T13:52:12.955Z,33.30
2022-08-05T13:54:42.438Z,32.80
2022-08-05T13:57:27.201Z,32.50
2022-08-05T14:00:18.835Z,30.00
2022-08-05T14:02:56.899Z,31.30
2022-08-05T14:05:29.729Z,29.70
2022-08-05T14:08:21.224Z,35.20
2022-08-05T14:10:59.685Z,30.80
2022-08-05T14:13:34.622Z,30.00
2022-08-05T14:16:07.885Z,31.80
2022-08-05T14:18:38.058Z,31.70
2022-08-05T14:22:09.477Z,34.60
2022-08-05T14:23:57.864Z,33.80
2022-08-05T14:26:38.778Z,32.70
2022-08-05T14:29:16.756Z,30.80
2022-08-05T14:32:03.945Z,31.40
2022-08-05T14:34:35.610Z,31.90
2022-08-05T14:37:05.106Z,32.50
2022-08-05T14:39:49.300Z,31.80
2022-08-05T14:42:25.006Z,32.40
2022-08-05T14:44:53.301Z,32.50
2022-08-05T14:47:58.496Z,33.00
2022-08-05T14:50:18.071Z,34.60
2022-08-05T14:52:53.567Z,32.80
2022-08-05T14:55:38.460Z,32.70
2022-08-05T14:58:11.358Z,34.20
2022-08-05T15:00:58.262Z,34.60
2022-08-05T15:03:33.085Z,32.20
2022-08-05T15:06:08.294Z,33.10
2022-08-05T15:08:59.214Z,34.00
2022-08-05T15:11:51.752Z,33.90
2022-08-05T15:14:48.219Z,36.30
2022-08-05T15:17:45.656Z,34.40
2022-08-05T15:20:36.749Z,34.10
2022-08-05T15:23:18.208Z,35.20
2022-08-05T15:26:02.561Z,34.70
2022-08-05T15:28:37.743Z,35.00
2022-08-05T15:31:24.725Z,36.80
2022-08-05T15:34:32.609Z,36.80
2022-08-05T15:38:33.410Z,36.80
2022-08-05T15:41:02.131Z,36.70
2022-08-05T15:43:28.025Z,37.70
2022-08-05T15:46:05.911Z,37.50
2022-08-05T15:48:51.922Z,38.40
2022-08-05T15:52:12.619Z,37.20
2022-08-05T15:54:43.785Z,41.10
2022-08-05T15:57:23.027Z,38.70
2022-08-05T16:00:02.437Z,39.80
2022-08-05T16:02:39.779Z,40.00
2022-08-05T16:05:28.342Z,40.10
2022-08-05T16:08:08.722Z,42.60
2022-08-05T16:10:42.819Z,42.90
2022-08-05T16:13:23.437Z,42.00
2022-08-05T16:16:10.628Z,47.20
2022-08-05T16:18:52.314Z,43.40
2022-08-05T16:21:58.972Z,42.20
2022-08-05T16:24:51.666Z,43.60
2022-08-05T16:27:32.267Z,47.60
2022-08-05T16:30:26.141Z,46.90
2022-08-05T16:33:07.180Z,47.90
2022-08-05T16:35:42.198Z,48.00
2022-08-05T16:38:25.136Z,49.70
2022-08-05T16:41:21.650Z,48.40
2022-08-05T16:44:19.057Z,52.40
2022-08-05T16:47:01.794Z,51.80
2022-08-05T16:49:39.485Z,53.20
2022-08-05T16:52:09.876Z,53.20
2022-08-05T16:54:48.785Z,53.90
2022-08-05T16:57:30.154Z,55.10
2022-08-05T17:00:34.348Z,55.40
2022-08-05T17:03:19.760Z,56.50
2022-08-05T17:06:03.218Z,58.10
2022-08-05T17:08:53.286Z,57.20
2022-08-05T17:11:36.019Z,56.60
2022-08-05T17:14:37.161Z,58.10
2022-08-05T17:17:19.690Z,58.50
2022-08-05T17:20:03.373Z,58.40
2022-08-05T17:22:46.944Z,59.70
2022-08-05T17:25:39.480Z,60.30
2022-08-05T17:28:18.540Z,60.20
2022-08-05T17:30:55.895Z,60.00
2022-08-05T17:33:29.895Z,61.70
2022-08-05T17:36:32.817Z,63.00
2022-08-05T17:39:24.305Z,61.70
2022-08-05T17:42:17.352Z,62.10
2022-08-05T17:44:59.043Z,61.30
2022-08-05T17:47:36.836Z,63.70
2022-08-05T17:50:27.748Z,64.30
2022-08-05T17:53:12.887Z,63.20
2022-08-05T17:55:50.672Z,64.20
2022-08-05T17:58:32.282Z,64.50
2022-08-05T18:01:09.877Z,64.10
2022-08-05T18:03:58.494Z,65.80
2022-08-05T18:06:46.889Z,64.00
2022-08-05T18:09:59.865Z,65.10
2022-08-05T18:12:40.869Z,67.20
2022-08-05T18:15:14.327Z,67.00
2022-08-05T18:18:02.758Z,67.00
2022-08-05T18:20:39.036Z,65.80
2022-08-05T18:23:20.887Z,66.50
2022-08-05T18:25:59.413Z,66.10
2022-08-05T18:28:39.985Z,67.60
2022-08-05T18:31:17.270Z,66.50
2022-08-05T18:33:59.852Z,66.60
2022-08-05T18:36:39.679Z,67.20
2022-08-05T18:40:30.896Z,67.80
2022-08-05T18:42:33.068Z,67.90
2022-08-05T18:45:10.490Z,67.70
2022-08-05T18:47:53.009Z,69.50
2022-08-05T18:50:46.983Z,70.20
2022-08-05T18:53:30.080Z,70.80
2022-08-05T18:56:12.995Z,73.40
2022-08-05T18:58:53.480Z,72.20
2022-08-05T19:01:47.661Z,72.30
2022-08-05T19:04:32.024Z,71.70
2022-08-05T19:07:12.916Z,70.90
2022-08-05T19:09:46.977Z,72.10
2022-08-05T19:12:37.551Z,74.80
2022-08-05T19:15:57.443Z,73.00
2022-08-05T19:18:35.079Z,72.50
2022-08-05T19:21:20.451Z,74.00
2022-08-05T19:24:05.510Z,73.70
2022-08-05T19:26:55.293Z,74.30
2022-08-05T19:29:36.657Z,71.40
2022-08-05T19:32:15.704Z,73.60
2022-08-05T19:35:05.814Z,73.20
2022-08-05T19:38:04.741Z,72.90
2022-08-05T19:40:58.038Z,72.50
2022-08-05T19:44:06.886Z,74.00
2022-08-05T19:46:50.241Z,72.70
2022-08-05T19:49:34.108Z,74.00
2022-08-05T19:52:30.889Z,75.00
2022-08-05T19:56:15.271Z,75.60
2022-08-05T19:58:29.420Z,75.60
2022-08-05T20:01:27.229Z,77.00
2022-08-05T20:04:05.964Z,76.70
2022-08-05T20:06:49.987Z,76.80
2022-08-05T20:09:24.654Z,78.00
2022-08-05T20:12:11.950Z,78.00
2022-08-05T20:14:52.739Z,78.00
2022-08-05T20:17:30.111Z,77.20
2022-08-05T20:20:15.775Z,77.60
2022-08-05T20:22:55.817Z,76.40
2022-08-05T20:25:33.716Z,76.90
2022-08-05T20:28:29.003Z,78.20
2022-08-05T20:31:10.992Z,78.40
2022-08-05T20:33:51.025Z,78.20
2022-08-05T20:36:25.063Z,80.10
2022-08-05T20:39:02.168Z,77.50
2022-08-05T20:41:56.106Z,79.50
2022-08-05T20:44:42.415Z,80.20
2022-08-05T20:47:31.810Z,79.00
2022-08-05T20:50:13.155Z,79.60
2022-08-05T20:52:50.214Z,80.30
2022-08-05T20:55:56.640Z,81.30
2022-08-05T20:59:04.120Z,82.20
2022-08-05T21:01:57.526Z,80.90
2022-08-05T21:04:40.483Z,83.20
2022-08-05T21:07:21.259Z,82.60
2022-08-05T21:10:00.092Z,82.60
2022-08-05T21:12:57.603Z,83.30
2022-08-05T21:15:55.875Z,82.90
2022-08-05T21:18:35.943Z,82.00
2022-08-05T21:21:24.393Z,84.80
2022-08-05T21:24:04.551Z,82.10
2022-08-05T21:26:39.103Z,83.00
2022-08-05T21:29:26.168Z,83.40
2022-08-05T21:32:10.964Z,84.20
2022-08-05T21:35:08.760Z,84.40
2022-08-05T21:37:56.120Z,84.30
2022-08-05T21:40:35.138Z,83.70
2022-08-05T21:43:24.767Z,84.00
2022-08-05T21:46:01.516Z,84.00
2022-08-05T21:48:44.099Z,84.10
2022-08-05T21:51:25.028Z,85.60
2022-08-05T21:54:27.844Z,86.90
2022-08-05T21:57:15.466Z,86.60
2022-08-05T22:00:06.050Z,86.40
2022-08-05T22:02:46.107Z,86.20
2022-08-05T22:05:16.693Z,86.40
2022-08-05T22:07:58.682Z,88.20
2022-08-05T22:10:30.971Z,87.40
2022-08-05T22:14:06.506Z,86.30
2022-08-05T22:16:02.035Z,86.40
2022-08-05T22:18:41.577Z,88.10
2022-08-05T22:21:19.395Z,87.00
2022-08-05T22:24:09.101Z,87.60
2022-08-05T22:26:59.960Z,86.90
2022-08-05T22:29:30.892Z,87.20
2022-08-05T22:32:02.786Z,87.30
2022-08-05T22:34:34.138Z,87.10
2022-08-05T22:37:04.774Z,87.00
2022-08-05T22:39:34.790Z,88.20
2022-08-05T22:42:11.386Z,87.80
2022-08-05T22:44:56.225Z,88.40
2022-08-05T22:47:29.268Z,87.50
2022-08-05T22:50:19.178Z,88.60
2022-08-05T22:52:47.327Z,89.20
2022-08-05T22:55:18.289Z,90.20
2022-08-05T22:57:46.590Z,90.20
2022-08-05T23:00:18.333Z,90.10
2022-08-05T23:02:50.511Z,88.90
2022-08-05T23:05:19.077Z,90.60
2022-08-05T23:07:53.842Z,90.00
2022-08-05T23:10:23.679Z,90.60
2022-08-05T23:12:55.245Z,90.50
2022-08-05T23:15:30.010Z,90.50
2022-08-05T23:18:03.265Z,90.60
2022-08-05T23:20:33.033Z,90.80
2022-08-05T23:23:06.014Z,90.80
2022-08-05T23:25:52.911Z,90.30
2022-08-05T23:28:24.149Z,90.90
2022-08-05T23:31:16.728Z,90.90
2022-08-05T23:34:04.360Z,91.10
2022-08-05T23:36:40.093Z,91.40
2022-08-05T23:39:17.589Z,91.60
2022-08-05T23:42:04.468Z,91.90
2022-08-05T23:44:37.046Z,92.00
2022-08-05T23:47:14.998Z,92.20
2022-08-05T23:49:46.894Z,92.20
2022-08-05T23:52:27.524Z,92.50
2022-08-05T23:54:57.059Z,92.30
2022-08-05T23:57:28.077Z,92.30
